createdAt,value
2022-08-26T00:00:48.639Z,26.84
2022-08-26T00:03:17.966Z,26.78
2022-08-26T00:05:46.154Z,26.68
2022-08-26T00:08:19.499Z,26.69
2022-08-26T00:10:47.512Z,26.57
2022-08-26T00:13:16.529Z,26.42
2022-08-26T00:15:46.426Z,26.37
2022-08-26T00:18:21.902Z,26.29
2022-08-26T00:20:49.675Z,26.17
2022-08-26T00:23:18.116Z,26.08
2022-08-26T00:25:44.999Z,26.01
2022-08-26T00:28:12.327Z,25.95
2022-08-26T00:30:43.540Z,25.87
2022-08-26T00:33:12.547Z,25.80
2022-08-26T00:35:39.237Z,25.74
2022-08-26T00:38:16.894Z,25.69
2022-08-26T00:40:55.208Z,25.65
2022-08-26T00:43:23.422Z,25.60
2022-08-26T00:45:55.699Z,25.62
2022-08-26T00:48:25.845Z,25.57
2022-08-26T00:51:02.134Z,25.40
2022-08-26T00:53:32.593Z,25.41
2022-08-26T00:56:07.543Z,25.32
2022-08-26T00:58:38.158Z,25.24
2022-08-26T01:01:08.088Z,25.17
2022-08-26T01:03:37.161Z,25.13
2022-08-26T01:06:05.439Z,25.00
2022-08-26T01:08:41.930Z,24.85
2022-08-26T01:11:11.259Z,24.81
2022-08-26T01:13:39.051Z,24.73
2022-08-26T01:16:14.068Z,24.73
2022-08-26T01:18:43.412Z,24.65
2022-08-26T01:21:18.106Z,24.49
2022-08-26T01:23:50.981Z,24.49
2022-08-26T01:26:21.298Z,24.48
2022-08-26T01:28:50.729Z,24.32
2022-08-26T01:31:23.664Z,24.32
2022-08-26T01:33:58.096Z,24.33
2022-08-26T01:36:24.940Z,24.14
2022-08-26T01:38:54.080Z,24.22
2022-08-26T01:41:27.055Z,24.21
2022-08-26T01:44:00.731Z,24.06
2022-08-26T01:46:31.436Z,24.06
2022-08-26T01:49:03.719Z,24.06
2022-08-26T01:51:39.133Z,24.02
2022-08-26T01:54:11.910Z,23.94
2022-08-26T01:56:41.455Z,23.93
2022-08-26T01:59:13.066Z,23.84
2022-08-26T02:01:43.136Z,23.86
2022-08-26T02:04:16.799Z,23.80
2022-08-26T02:06:44.107Z,23.76
2022-08-26T02:09:14.054Z,23.72
2022-08-26T02:11:42.089Z,23.76
2022-08-26T02:14:11.476Z,23.69
2022-08-26T02:16:42.220Z,23.68
2022-08-26T02:19:17.087Z,23.69
2022-08-26T02:21:45.299Z,23.63
2022-08-26T02:24:19.350Z,23.52
2022-08-26T02:26:47.685Z,23.58
2022-08-26T02:29:23.356Z,23.55
2022-08-26T02:31:50.475Z,23.50
2022-08-26T02:34:21.933Z,23.48
2022-08-26T02:36:48.843Z,23.46
2022-08-26T02:39:22.221Z,23.46
2022-08-26T02:41:49.771Z,23.40
2022-08-26T02:44:16.460Z,23.35
2022-08-26T02:46:46.850Z,23.39
2022-08-26T02:49:14.055Z,23.30
2022-08-26T02:51:41.059Z,23.17
2022-08-26T02:54:10.860Z,23.17
2022-08-26T02:56:39.247Z,23.19
2022-08-26T02:59:06.270Z,23.07
2022-08-26T03:01:35.821Z,23.15
2022-08-26T03:04:06.104Z,23.09
2022-08-26T03:06:35.173Z,23.09
2022-08-26T03:09:04.815Z,23.10
2022-08-26T03:11:33.499Z,23.08
2022-08-26T03:14:03.655Z,23.02
2022-08-26T03:16:32.478Z,23.07
2022-08-26T03:19:00.389Z,23.07
2022-08-26T03:21:27.034Z,23.01
2022-08-26T03:23:58.725Z,22.96
2022-08-26T03:26:26.948Z,22.97
2022-08-26T03:28:55.145Z,22.88
2022-08-26T03:31:24.664Z,22.87
2022-08-26T03:33:51.970Z,22.88
2022-08-26T03:36:18.860Z,22.85
2022-08-26T03:38:46.335Z,22.83
2022-08-26T03:41:14.824Z,22.92
2022-08-26T03:43:42.272Z,23.00
2022-08-26T03:46:11.677Z,23.03
2022-08-26T03:48:40.323Z,23.14
2022-08-26T03:51:13.900Z,23.30
2022-08-26T03:53:45.763Z,23.35
2022-08-26T03:56:14.158Z,23.33
2022-08-26T03:58:42.868Z,23.37
2022-08-26T04:01:10.023Z,23.44
2022-08-26T04:03:36.928Z,23.45
2022-08-26T04:06:08.058Z,23.49
2022-08-26T04:08:36.462Z,23.52
2022-08-26T04:11:03.830Z,23.56
2022-08-26T04:13:31.391Z,23.53
2022-08-26T04:15:58.215Z,23.65
2022-08-26T04:18:31.439Z,23.61
2022-08-26T04:21:05.709Z,23.78
2022-08-26T04:23:47.210Z,23.75
2022-08-26T04:26:14.896Z,23.73
2022-08-26T04:28:44.653Z,23.84
2022-08-26T04:31:13.219Z,23.83
2022-08-26T04:33:41.912Z,23.80
2022-08-26T04:36:10.027Z,23.82
2022-08-26T04:38:38.506Z,23.83
2022-08-26T04:41:15.678Z,23.80
2022-08-26T04:43:47.783Z,23.63
2022-08-26T04:46:19.149Z,23.77
2022-08-26T04:48:46.146Z,23.87
2022-08-26T04:51:12.815Z,23.84
2022-08-26T04:53:41.402Z,23.91
2022-08-26T04:56:09.079Z,23.78
2022-08-26T04:58:36.800Z,23.86
2022-08-26T05:01:03.562Z,23.91
2022-08-26T05:03:31.686Z,24.04
2022-08-26T05:05:58.762Z,24.01
2022-08-26T05:08:26.001Z,24.11
2022-08-26T05:10:55.182Z,24.21
2022-08-26T05:13:24.878Z,24.20
2022-08-26T05:16:00.020Z,24.20
2022-08-26T05:18:30.807Z,24.13
2022-08-26T05:20:57.458Z,24.35
2022-08-26T05:23:27.862Z,24.43
2022-08-26T05:25:59.287Z,24.50
2022-08-26T05:28:29.704Z,24.43
2022-08-26T05:30:56.772Z,24.51
2022-08-26T05:33:23.909Z,24.59
2022-08-26T05:35:53.280Z,24.63
2022-08-26T05:38:23.342Z,24.62
2022-08-26T05:40:54.159Z,24.68
2022-08-26T05:43:22.689Z,24.82
2022-08-26T05:45:50.902Z,24.84
2022-08-26T05:48:22.774Z,24.91
2022-08-26T05:50:53.010Z,24.99
2022-08-26T05:53:22.403Z,25.01
2022-08-26T05:55:54.740Z,24.98
2022-08-26T05:58:24.411Z,25.21
2022-08-26T06:00:59.249Z,25.22
2022-08-26T06:03:27.326Z,25.24
2022-08-26T06:05:54.150Z,25.15
2022-08-26T06:08:21.132Z,25.00
2022-08-26T06:10:50.922Z,25.21
2022-08-26T06:13:21.751Z,25.30
2022-08-26T06:15:51.489Z,25.55
2022-08-26T06:18:24.773Z,25.53
2022-08-26T06:20:57.021Z,25.77
2022-08-26T06:23:26.720Z,25.91
2022-08-26T06:25:53.763Z,26.02
2022-08-26T06:28:20.387Z,25.97
2022-08-26T06:30:47.884Z,26.02
2022-08-26T06:33:16.090Z,26.23
2022-08-26T06:35:44.740Z,26.09
2022-08-26T06:38:11.368Z,25.97
2022-08-26T06:40:41.481Z,26.37
2022-08-26T06:43:10.374Z,26.30
2022-08-26T06:45:37.157Z,26.30
2022-08-26T06:48:04.756Z,26.55
2022-08-26T06:50:40.921Z,26.75
2022-08-26T06:53:08.109Z,26.57
2022-08-26T06:55:41.026Z,26.45
2022-08-26T06:58:08.585Z,26.29
2022-08-26T07:00:35.393Z,26.16
2022-08-26T07:03:02.542Z,26.16
2022-08-26T07:05:29.929Z,26.52
2022-08-26T07:08:05.548Z,26.30
2022-08-26T07:10:32.572Z,26.25
2022-08-26T07:12:59.506Z,26.37
2022-08-26T07:15:31.049Z,26.32
2022-08-26T07:18:00.157Z,26.40
2022-08-26T07:20:27.347Z,26.62
2022-08-26T07:22:54.409Z,26.81
2022-08-26T07:25:22.434Z,26.57
2022-08-26T07:27:54.292Z,26.60
2022-08-26T07:30:23.025Z,26.57
2022-08-26T07:32:49.967Z,26.73
2022-08-26T07:35:16.850Z,26.66
2022-08-26T07:37:43.635Z,26.72
2022-08-26T07:40:10.456Z,26.87
2022-08-26T07:42:41.089Z,26.79
2022-08-26T07:45:08.329Z,26.54
2022-08-26T07:47:35.088Z,26.73
2022-08-26T07:50:02.645Z,26.55
2022-08-26T07:53:12.295Z,26.46
2022-08-26T07:55:58.912Z,26.58
2022-08-26T07:58:37.098Z,26.66
2022-08-26T08:05:00.313Z,26.43
2022-08-26T08:07:44.301Z,26.48
2022-08-26T08:10:32.173Z,26.32
2022-08-26T08:16:01.842Z,26.69
2022-08-26T08:21:49.865Z,26.24
2022-08-26T08:24:20.404Z,26.33
2022-08-26T08:26:47.348Z,26.46
2022-08-26T08:29:15.296Z,26.66
2022-08-26T08:31:58.967Z,26.68
2022-08-26T08:34:28.268Z,26.85
2022-08-26T08:36:56.034Z,26.68
2022-08-26T08:39:24.012Z,26.68
2022-08-26T08:45:12.452Z,26.99
2022-08-26T08:47:44.616Z,27.10
2022-08-26T08:50:21.775Z,27.02
2022-08-26T08:52:54.488Z,27.01
2022-08-26T08:55:23.207Z,26.98
2022-08-26T08:58:02.698Z,26.83
2022-08-26T09:00:39.784Z,26.54
2022-08-26T09:03:18.223Z,26.70
2022-08-26T09:05:48.841Z,26.39
2022-08-26T09:08:21.367Z,26.43
2022-08-26T09:10:54.777Z,26.51
2022-08-26T09:35:00.419Z,26.11
2022-08-26T09:40:19.131Z,26.81
2022-08-26T09:43:06.657Z,26.97
2022-08-26T09:45:34.070Z,26.87
2022-08-26T09:48:01.808Z,26.42
2022-08-26T09:50:33.108Z,26.73
2022-08-26T09:53:14.769Z,26.76
2022-08-26T09:59:31.447Z,26.97
2022-08-26T10:02:17.394Z,27.34
2022-08-26T10:08:40.172Z,27.28
2022-08-26T10:11:14.724Z,26.69
2022-08-26T10:13:45.229Z,27.10
2022-08-26T10:16:18.019Z,27.05
2022-08-26T10:18:58.118Z,27.35
2022-08-26T10:21:36.009Z,27.37
2022-08-26T10:24:06.845Z,27.45
2022-08-26T10:26:41.420Z,27.38
2022-08-26T10:29:13.597Z,27.48
2022-08-26T10:31:47.833Z,27.23
2022-08-26T10:34:23.325Z,27.55
2022-08-26T10:37:14.844Z,27.25
2022-08-26T10:39:51.965Z,27.45
2022-08-26T10:42:29.306Z,27.80
2022-08-26T10:45:01.819Z,27.80
2022-08-26T10:47:39.897Z,27.67
2022-08-26T10:50:14.782Z,27.40
2022-08-26T10:53:26.518Z,27.66
2022-08-26T10:56:19.143Z,27.87
2022-08-26T10:58:57.543Z,28.07
2022-08-26T11:01:32.195Z,28.33
2022-08-26T11:04:05.829Z,28.15
2022-08-26T11:06:32.774Z,27.93
2022-08-26T11:09:01.376Z,27.47
2022-08-26T11:11:48.852Z,27.69
2022-08-26T11:14:41.105Z,27.82
2022-08-26T11:17:53.602Z,27.47
2022-08-26T11:20:36.432Z,26.87
2022-08-26T11:23:38.446Z,26.64
2022-08-26T11:26:36.001Z,26.96
2022-08-26T11:29:12.857Z,27.23
2022-08-26T11:32:03.518Z,27.37
2022-08-26T11:34:54.494Z,27.29
2022-08-26T11:38:02.025Z,27.28
2022-08-26T11:40:33.358Z,27.24
2022-08-26T11:43:06.432Z,27.48
2022-08-26T11:45:39.691Z,27.47
2022-08-26T11:48:16.581Z,27.17
2022-08-26T11:50:53.756Z,26.94
2022-08-26T11:53:20.916Z,27.35
2022-08-26T11:55:51.868Z,27.72
2022-08-26T11:58:21.829Z,28.08
2022-08-26T12:00:52.557Z,28.38
2022-08-26T12:03:23.783Z,28.30
2022-08-26T12:05:54.330Z,27.54
2022-08-26T12:08:28.100Z,27.08
2022-08-26T12:11:02.350Z,27.45
2022-08-26T12:13:29.084Z,27.02
2022-08-26T12:16:00.885Z,27.11
2022-08-26T12:18:30.761Z,27.57
2022-08-26T12:21:11.419Z,27.95
2022-08-26T12:23:43.343Z,27.41
2022-08-26T12:26:18.331Z,27.67
2022-08-26T12:28:49.223Z,26.91
2022-08-26T12:31:24.433Z,27.33
2022-08-26T12:33:52.483Z,27.21
2022-08-26T12:36:24.580Z,27.67
2022-08-26T12:38:52.480Z,28.12
2022-08-26T12:41:43.552Z,27.91
2022-08-26T12:44:31.644Z,27.59
2022-08-26T12:47:04.093Z,27.86
2022-08-26T12:49:31.017Z,28.52
2022-08-26T12:51:58.059Z,28.46
2022-08-26T12:54:24.977Z,28.55
2022-08-26T12:56:52.153Z,28.40
2022-08-26T12:59:23.116Z,28.28
2022-08-26T13:01:50.194Z,28.37
2022-08-26T13:04:36.001Z,28.83
2022-08-26T13:07:20.672Z,29.21
2022-08-26T13:12:49.632Z,28.99
2022-08-26T13:15:25.295Z,28.91
2022-08-26T13:20:46.840Z,28.30
2022-08-26T13:23:14.142Z,28.43
2022-08-26T13:25:41.027Z,29.14
2022-08-26T13:28:07.930Z,28.86
2022-08-26T13:30:34.931Z,29.06
2022-08-26T13:33:02.173Z,29.17
2022-08-26T13:35:29.991Z,29.37
2022-08-26T13:37:58.035Z,29.71
2022-08-26T13:40:24.697Z,28.92
2022-08-26T13:42:51.558Z,29.20
2022-08-26T13:45:20.652Z,29.45
2022-08-26T13:47:47.571Z,29.00
2022-08-26T13:50:14.397Z,29.56
2022-08-26T13:52:41.156Z,29.32
2022-08-26T13:55:10.159Z,28.51
2022-08-26T13:57:36.890Z,27.69
2022-08-26T14:00:04.717Z,27.73
2022-08-26T14:02:31.432Z,27.60
2022-08-26T14:04:58.133Z,27.46
2022-08-26T14:07:24.845Z,27.36
2022-08-26T14:09:54.122Z,26.91
2022-08-26T14:12:22.421Z,26.86
2022-08-26T14:14:49.193Z,26.85
2022-08-26T14:17:21.388Z,26.63
2022-08-26T14:19:49.944Z,26.87
2022-08-26T14:22:21.208Z,26.55
2022-08-26T14:24:48.567Z,27.25
2022-08-26T14:27:15.395Z,26.56
2022-08-26T14:29:43.465Z,26.60
2022-08-26T14:32:13.643Z,27.05
2022-08-26T14:34:41.788Z,26.81
2022-08-26T14:37:11.451Z,26.46
2022-08-26T14:39:40.465Z,26.68
2022-08-26T14:42:07.525Z,26.70
2022-08-26T14:44:34.271Z,26.16
2022-08-26T14:47:04.197Z,26.24
2022-08-26T14:49:30.875Z,26.45
2022-08-26T14:51:58.056Z,26.32
2022-08-26T14:54:24.750Z,26.58
2022-08-26T14:56:53.106Z,26.85
2022-08-26T14:59:21.969Z,27.14
2022-08-26T15:01:50.917Z,27.03
2022-08-26T15:04:19.971Z,27.12
2022-08-26T15:06:47.317Z,26.82
2022-08-26T15:09:14.725Z,26.59
2022-08-26T15:11:41.762Z,26.63
2022-08-26T15:14:08.554Z,26.46
2022-08-26T15:16:46.559Z,26.45
2022-08-26T15:19:13.263Z,26.38
2022-08-26T15:21:41.787Z,26.42
2022-08-26T15:24:08.858Z,26.97
2022-08-26T15:26:35.498Z,27.18
2022-08-26T15:29:04.981Z,27.85
2022-08-26T15:31:33.517Z,27.96
2022-08-26T15:34:04.156Z,27.75
2022-08-26T15:36:32.798Z,27.24
2022-08-26T15:39:01.187Z,27.83
2022-08-26T15:41:28.587Z,27.85
2022-08-26T15:43:55.480Z,27.24
2022-08-26T15:46:22.595Z,27.47
2022-08-26T15:48:49.375Z,27.01
2022-08-26T15:51:21.012Z,27.11
2022-08-26T15:53:50.296Z,26.86
2022-08-26T15:56:18.615Z,26.82
2022-08-26T15:58:45.530Z,26.35
2022-08-26T16:01:12.518Z,26.37
2022-08-26T16:03:39.251Z,26.40
2022-08-26T16:06:06.608Z,26.30
2022-08-26T16:08:36.416Z,25.95
2022-08-26T16:11:03.686Z,25.58
2022-08-26T16:13:39.860Z,25.72
2022-08-26T16:16:07.916Z,25.39
2022-08-26T16:18:34.758Z,25.12
2022-08-26T16:21:13.612Z,24.85
2022-08-26T16:23:40.876Z,25.52
2022-08-26T16:26:14.839Z,25.71
2022-08-26T16:28:45.250Z,25.72
2022-08-26T16:31:12.288Z,25.51
2022-08-26T16:33:39.111Z,25.60
2022-08-26T16:36:06.834Z,25.19
2022-08-26T16:38:33.907Z,25.08
2022-08-26T16:41:00.667Z,24.79
2022-08-26T16:43:27.737Z,24.91
2022-08-26T16:45:57.453Z,24.98
2022-08-26T16:48:24.408Z,25.01
2022-08-26T16:50:51.527Z,24.52
2022-08-26T16:53:18.181Z,24.93
2022-08-26T16:55:44.913Z,24.95
2022-08-26T16:58:11.711Z,24.63
2022-08-26T17:00:38.729Z,24.82
2022-08-26T17:03:06.821Z,24.77
2022-08-26T17:05:33.490Z,24.34
2022-08-26T17:08:00.203Z,24.51
2022-08-26T17:10:28.594Z,24.58
2022-08-26T17:12:55.600Z,24.62
2022-08-26T17:15:22.621Z,24.68
2022-08-26T17:17:49.382Z,24.31
2022-08-26T17:20:18.011Z,24.04
2022-08-26T17:22:46.877Z,24.21
2022-08-26T17:25:16.422Z,23.80
2022-08-26T17:27:43.498Z,24.00
2022-08-26T17:30:11.337Z,23.89
2022-08-26T17:32:38.027Z,23.87
2022-08-26T17:35:05.866Z,24.00
2022-08-26T17:37:33.895Z,24.15
2022-08-26T17:40:00.885Z,24.25
2022-08-26T17:42:31.579Z,24.59
2022-08-26T17:44:58.821Z,24.17
2022-08-26T17:47:25.560Z,23.84
2022-08-26T17:49:52.286Z,23.86
2022-08-26T17:52:19.039Z,23.60
2022-08-26T17:54:47.483Z,23.36
2022-08-26T17:57:14.288Z,23.29
2022-08-26T17:59:41.071Z,23.35
2022-08-26T18:02:07.713Z,23.08
2022-08-26T18:04:34.410Z,23.68
2022-08-26T18:07:01.033Z,23.30
2022-08-26T18:09:29.455Z,23.43
2022-08-26T18:11:57.791Z,23.62
2022-08-26T18:14:24.433Z,23.01
2022-08-26T18:16:51.487Z,23.47
2022-08-26T18:19:18.201Z,23.63
2022-08-26T18:21:47.024Z,23.26
2022-08-26T18:24:14.337Z,23.21
2022-08-26T18:26:42.317Z,23.50
2022-08-26T18:29:10.585Z,23.50
2022-08-26T18:31:37.318Z,23.61
2022-08-26T18:34:04.027Z,23.49
2022-08-26T18:36:33.083Z,23.43
2022-08-26T18:39:00.855Z,23.61
2022-08-26T18:41:31.660Z,23.31
2022-08-26T18:44:01.899Z,23.34
2022-08-26T18:46:30.365Z,23.17
2022-08-26T18:49:00.168Z,23.35
2022-08-26T18:51:29.518Z,23.46
2022-08-26T18:53:56.918Z,23.47
2022-08-26T18:56:23.558Z,23.82
2022-08-26T18:58:50.798Z,23.80
2022-08-26T19:01:19.345Z,23.83
2022-08-26T19:03:48.393Z,23.98
2022-08-26T19:06:16.666Z,23.85
2022-08-26T19:08:44.590Z,23.86
2022-08-26T19:11:11.616Z,23.25
2022-08-26T19:13:40.739Z,23.44
2022-08-26T19:16:07.638Z,23.66
2022-08-26T19:18:34.336Z,23.73
2022-08-26T19:21:04.420Z,23.87
2022-08-26T19:23:32.294Z,23.71
2022-08-26T19:26:02.021Z,23.73
2022-08-26T19:28:28.779Z,23.73
2022-08-26T19:30:55.543Z,23.57
2022-08-26T19:33:22.571Z,23.49
2022-08-26T19:35:49.291Z,23.25
2022-08-26T19:38:17.667Z,23.58
2022-08-26T19:40:44.392Z,23.43
2022-08-26T19:43:11.990Z,23.33
2022-08-26T19:45:39.152Z,23.22
2022-08-26T19:48:06.018Z,23.27
2022-08-26T19:50:34.408Z,23.34
2022-08-26T19:53:01.560Z,23.43
2022-08-26T19:55:30.596Z,23.31
2022-08-26T19:57:57.350Z,23.21
2022-08-26T20:00:26.395Z,23.06
2022-08-26T20:02:53.803Z,23.13
2022-08-26T20:05:22.991Z,22.92
2022-08-26T20:07:50.324Z,23.22
2022-08-26T20:10:19.366Z,23.15
2022-08-26T20:12:48.773Z,23.00
2022-08-26T20:15:15.730Z,22.89
2022-08-26T20:17:42.472Z,22.95
2022-08-26T20:20:14.740Z,22.83
2022-08-26T20:22:58.019Z,22.93
2022-08-26T20:25:25.121Z,22.20
2022-08-26T20:27:53.202Z,22.40
2022-08-26T20:30:20.299Z,22.35
2022-08-26T20:32:47.066Z,22.46
2022-08-26T20:35:14.492Z,22.27
2022-08-26T20:37:42.030Z,22.39
2022-08-26T20:40:11.098Z,22.20
2022-08-26T20:42:37.895Z,22.35
2022-08-26T20:45:07.790Z,21.73
2022-08-26T20:47:34.863Z,21.95
2022-08-26T20:50:01.830Z,21.85
2022-08-26T20:52:28.689Z,21.79
2022-08-26T20:54:55.772Z,22.38
2022-08-26T20:57:22.564Z,22.24
2022-08-26T20:59:49.466Z,22.13
2022-08-26T21:02:17.772Z,22.04
2022-08-26T21:04:44.503Z,21.83
2022-08-26T21:07:11.347Z,21.78
2022-08-26T21:09:38.259Z,21.76
2022-08-26T21:12:05.821Z,21.53
2022-08-26T21:14:32.780Z,21.80
2022-08-26T21:16:59.566Z,21.66
2022-08-26T21:19:27.621Z,21.32
2022-08-26T21:21:54.389Z,20.88
2022-08-26T21:24:21.700Z,20.86
2022-08-26T21:26:48.518Z,20.99
2022-08-26T21:29:15.223Z,20.50
2022-08-26T21:31:46.505Z,20.85
2022-08-26T21:34:14.224Z,20.92
2022-08-26T21:36:42.266Z,21.18
2022-08-26T21:39:11.772Z,20.76
2022-08-26T21:41:39.839Z,20.95
2022-08-26T21:44:06.851Z,20.53
2022-08-26T21:46:33.893Z,20.35
2022-08-26T21:49:03.015Z,20.39
2022-08-26T21:51:34.324Z,20.33
2022-08-26T21:54:06.563Z,20.42
2022-08-26T21:56:39.105Z,20.47
2022-08-26T21:59:06.859Z,20.43
2022-08-26T22:01:34.924Z,20.58
2022-08-26T22:04:02.345Z,20.34
2022-08-26T22:06:30.233Z,20.33
2022-08-26T22:08:57.908Z,20.43
2022-08-26T22:11:27.310Z,20.66
2022-08-26T22:13:55.157Z,20.63
2022-08-26T22:16:21.925Z,20.47
2022-08-26T22:18:48.776Z,20.47
2022-08-26T22:21:18.023Z,20.46
2022-08-26T22:23:45.036Z,20.38
2022-08-26T22:26:14.305Z,20.60
2022-08-26T22:28:42.674Z,20.81
2022-08-26T22:31:11.232Z,20.46
2022-08-26T22:33:38.301Z,20.62
2022-08-26T22:36:05.544Z,20.38
2022-08-26T22:38:33.533Z,20.58
2022-08-26T22:41:00.234Z,20.37
2022-08-26T22:43:28.794Z,20.25
2022-08-26T22:45:56.872Z,20.35
2022-08-26T22:48:25.669Z,20.22
2022-08-26T22:50:59.552Z,20.16
2022-08-26T22:53:27.234Z,20.28
2022-08-26T22:55:54.001Z,20.19
2022-08-26T22:58:21.566Z,19.99
2022-08-26T23:00:59.334Z,20.01
2022-08-26T23:03:26.622Z,20.13
2022-08-26T23:05:53.481Z,19.90
2022-08-26T23:08:20.350Z,19.88
2022-08-26T23:10:48.063Z,19.94
2022-08-26T23:13:15.570Z,19.83
2022-08-26T23:15:43.170Z,20.20
2022-08-26T23:18:12.229Z,20.31
2022-08-26T23:20:40.403Z,20.03
2022-08-26T23:23:07.925Z,19.99
2022-08-26T23:25:34.755Z,19.95
2022-08-26T23:28:02.265Z,19.77
2022-08-26T23:30:31.517Z,19.70
2022-08-26T23:32:58.518Z,19.88
2022-08-26T23:35:27.366Z,19.89
2022-08-26T23:37:54.386Z,20.12
2022-08-26T23:40:28.440Z,19.71
2022-08-26T23:42:57.651Z,19.86
2022-08-26T23:45:25.906Z,19.73
2022-08-26T23:47:53.689Z,19.74
2022-08-26T23:50:23.149Z,19.98
2022-08-26T23:52:51.305Z,19.90
2022-08-26T23:55:18.242Z,19.80
2022-08-26T23:57:45.063Z,19.68
